Terminal Aerodrome Forecast
Issued by NWS Twin Cities, MN

Home | Current Version | Previous Version | Text Only | Print | Product List | Glossary On
Versions: 1 2 3 4 5 6 7 8 9 10 11 12 13
413
FTUS43 KMPX 281720
TAFEAU
TAF
KEAU 281720Z 2818/2918 13005KT P6SM BKN010
     FM281930 15006KT P6SM SCT030 BKN050
     FM290800 16003KT 2SM BR BKN004
      TEMPO 2909/2913 1/2SM FG VV003
     FM291400 19006KT P6SM BKN015=

USA.gov is the U.S. government's official web portal to all federal, state and local government web resources and services.